Time;durP1;ratioP1;P1;durP2;ratioP2;P2;SDS_P1;SDS_P2;PMS_P1;PMS_P2;Temp;Humidity;BMP_temperature;BMP_pressure;BME280_temperature;BME280_humidity;BME280_pressure;Samples;Min_cycle;Max_cycle;Signal;HPM_P1;HPM_P2
2024/03/19 00:00:13;;;;;;;97.30;24.45;;;;;;;10.60;100.00;98064.22;5097209;28;20169;-60
2024/03/19 00:02:39;;;;;;;93.90;24.05;;;;;;;10.68;100.00;98066.81;5097572;28;20471;-63
2024/03/19 00:05:05;;;;;;;97.32;23.10;;;;;;;10.51;100.00;98070.31;5096680;28;20147;-60
2024/03/19 00:07:31;;;;;;;64.00;22.15;;;;;;;10.72;100.00;98072.88;5098188;28;20020;-60
2024/03/19 00:09:56;;;;;;;64.03;21.77;;;;;;;10.91;100.00;98065.91;5096774;28;20023;-61
2024/03/19 00:12:24;;;;;;;90.28;23.92;;;;;;;10.70;100.00;98065.09;5097214;28;20050;-64
2024/03/19 00:14:49;;;;;;;104.57;26.88;;;;;;;10.62;100.00;98062.47;5096261;27;20031;-63
2024/03/19 00:17:15;;;;;;;76.60;22.88;;;;;;;10.87;100.00;98067.63;5097301;28;20352;-62
2024/03/19 00:19:40;;;;;;;87.97;23.67;;;;;;;10.62;100.00;98064.22;5075763;28;20028;-62
2024/03/19 00:22:05;;;;;;;73.88;23.75;;;;;;;10.45;100.00;98065.13;5097162;28;20032;-63
2024/03/19 00:24:31;;;;;;;73.93;22.88;;;;;;;10.77;100.00;98065.94;5097378;28;20161;-60
2024/03/19 00:26:57;;;;;;;67.28;21.27;;;;;;;10.48;100.00;98062.53;5095954;28;20589;-61
2024/03/19 00:29:22;;;;;;;73.68;23.40;;;;;;;10.78;100.00;98068.53;5097662;28;20035;-61
2024/03/19 00:31:47;;;;;;;110.05;25.05;;;;;;;10.86;100.00;98072.81;5096212;28;20415;-62
2024/03/19 00:34:13;;;;;;;103.15;25.88;;;;;;;10.70;100.00;98074.59;5096643;28;20388;-60
2024/03/19 00:36:38;;;;;;;79.60;25.73;;;;;;;10.69;100.00;98071.13;5095880;28;20032;-62
2024/03/19 00:39:10;;;;;;;67.35;21.45;;;;;;;10.48;100.00;98070.34;5098041;28;20108;-63
2024/03/19 00:41:36;;;;;;;66.05;24.15;;;;;;;10.66;100.00;98069.41;5096851;28;20108;-60
2024/03/19 00:44:01;;;;;;;77.82;23.98;;;;;;;10.61;100.00;98078.97;5096536;28;20472;-61
2024/03/19 00:46:27;;;;;;;71.30;23.30;;;;;;;10.61;100.00;98072.91;5096498;28;20540;-61
2024/03/19 00:48:52;;;;;;;101.47;24.88;;;;;;;10.38;100.00;98071.16;5096909;28;20034;-60
2024/03/19 00:51:17;;;;;;;74.13;22.10;;;;;;;10.58;100.00;98065.09;5095831;28;20124;-63
2024/03/19 00:53:43;;;;;;;91.45;24.63;;;;;;;10.29;100.00;98065.09;5096110;28;20466;-61
2024/03/19 00:56:08;;;;;;;84.68;24.17;;;;;;;9.81;100.00;98061.66;5096520;28;20051;-62
2024/03/19 00:58:33;;;;;;;71.05;23.52;;;;;;;10.19;100.00;98059.91;5097567;28;20479;-63
2024/03/19 01:00:59;;;;;;;75.47;21.42;;;;;;;10.05;100.00;98065.13;5094151;28;20027;-61
2024/03/19 01:03:24;;;;;;;85.45;23.67;;;;;;;9.86;100.00;98078.09;5097148;28;20074;-61
2024/03/19 01:05:50;;;;;;;107.60;25.27;;;;;;;9.76;100.00;98075.50;5095582;28;20043;-61
2024/03/19 01:08:15;;;;;;;48.58;20.38;;;;;;;9.63;100.00;98074.63;5097119;28;20031;-60
2024/03/19 01:10:42;;;;;;;95.13;23.90;;;;;;;9.58;100.00;98078.91;5094763;28;20036;-63
2024/03/19 01:13:07;;;;;;;66.38;21.00;;;;;;;9.66;100.00;98073.75;5097069;28;20511;-61
2024/03/19 01:15:33;;;;;;;72.10;19.52;;;;;;;9.79;100.00;98073.78;5096153;28;20044;-62
2024/03/19 01:17:59;;;;;;;55.90;18.33;;;;;;;9.84;100.00;98078.09;5096045;28;20408;-61
2024/03/19 01:20:26;;;;;;;77.22;18.08;;;;;;;10.16;100.00;98074.66;5096379;28;20660;-62
2024/03/19 01:22:51;;;;;;;93.38;19.85;;;;;;;9.86;100.00;98085.91;5095987;28;20058;-63
2024/03/19 01:25:17;;;;;;;66.70;16.90;;;;;;;9.91;100.00;98078.97;5096107;28;20028;-62
2024/03/19 01:27:43;;;;;;;82.03;19.70;;;;;;;9.95;100.00;98085.91;5096174;28;20451;-62
2024/03/19 01:30:10;;;;;;;90.25;20.13;;;;;;;9.87;100.00;98087.63;5095769;28;20069;-60
2024/03/19 01:32:35;;;;;;;63.08;19.55;;;;;;;9.66;100.00;98083.28;5096082;28;20047;-64
2024/03/19 01:35:01;;;;;;;71.72;18.50;;;;;;;9.71;100.00;98082.44;5095267;28;20015;-63
2024/03/19 01:37:26;;;;;;;67.22;18.65;;;;;;;9.87;100.00;98083.31;5096121;28;20330;-61
2024/03/19 01:39:52;;;;;;;101.70;20.20;;;;;;;9.71;100.00;98079.81;5096185;28;20096;-63
2024/03/19 01:42:18;;;;;;;59.92;16.35;;;;;;;10.06;100.00;98077.25;5096309;28;20131;-63
2024/03/19 01:44:44;;;;;;;92.07;19.95;;;;;;;10.05;100.00;98078.97;5095257;28;20019;-62
2024/03/19 01:47:10;;;;;;;78.35;17.88;;;;;;;9.79;100.00;98089.38;5095751;28;20407;-64
2024/03/19 01:49:35;;;;;;;65.32;17.58;;;;;;;10.13;100.00;98086.75;5096948;28;20126;-62
2024/03/19 01:52:02;;;;;;;95.63;20.17;;;;;;;10.13;100.00;98081.56;5094213;28;20041;-60
2024/03/19 01:54:31;;;;;;;66.63;18.73;;;;;;;9.98;100.00;98088.50;5096655;28;20050;-61
2024/03/19 01:56:57;;;;;;;91.55;23.10;;;;;;;9.95;100.00;98078.09;5097252;28;20074;-62
2024/03/19 01:59:22;;;;;;;74.15;19.90;;;;;;;9.72;100.00;98070.28;5100809;28;20219;-63
2024/03/19 02:01:48;;;;;;;101.25;22.30;;;;;;;9.62;100.00;98075.47;5097961;28;20403;-62
2024/03/19 02:04:13;;;;;;;73.47;20.70;;;;;;;9.98;100.00;98077.28;5100235;28;20040;-60
2024/03/19 02:06:38;;;;;;;80.80;20.63;;;;;;;9.85;100.00;98082.44;5099944;28;20035;-62
2024/03/19 02:09:08;;;;;;;77.10;17.10;;;;;;;10.12;100.00;98070.31;5099392;28;20486;-60
2024/03/19 02:11:34;;;;;;;66.20;19.52;;;;;;;9.89;100.00;98073.78;5100086;28;20036;-60
2024/03/19 02:14:01;;;;;;;118.07;23.52;;;;;;;9.72;100.00;98068.56;5098141;28;20034;-61
2024/03/19 02:16:26;;;;;;;67.18;19.08;;;;;;;9.54;100.00;98065.94;5100477;28;20035;-62
2024/03/19 02:19:01;;;;;;;118.03;24.45;;;;;;;9.52;100.00;98071.13;5099516;28;20038;-63
2024/03/19 02:21:26;;;;;;;51.58;20.60;;;;;;;9.50;100.00;98070.25;5099886;28;20281;-63
2024/03/19 02:23:58;;;;;;;97.20;22.90;;;;;;;9.45;100.00;98069.38;5098267;28;20063;-61
2024/03/19 02:26:26;;;;;;;85.50;23.20;;;;;;;9.36;100.00;98078.03;5099700;28;20461;-61
2024/03/19 02:28:52;;;;;;;109.55;25.35;;;;;;;9.19;100.00;98065.84;5098737;28;20043;-60
2024/03/19 02:31:18;;;;;;;76.03;21.80;;;;;;;9.15;100.00;98071.00;5098997;28;20027;-60
2024/03/19 02:33:43;;;;;;;100.15;23.02;;;;;;;8.87;100.00;98076.94;5098097;28;20176;-59
2024/03/19 02:36:09;;;;;;;88.32;23.15;;;;;;;8.87;100.00;98066.56;5099516;28;20427;-61
2024/03/19 02:38:34;;;;;;;67.20;21.05;;;;;;;9.01;100.00;98064.03;5100127;28;20019;-62
2024/03/19 02:41:00;;;;;;;115.50;25.92;;;;;;;8.94;100.00;98059.69;5097139;28;20100;-60
2024/03/19 02:43:25;;;;;;;70.75;22.20;;;;;;;8.85;100.00;98057.94;5100111;28;20485;-64
2024/03/19 02:45:50;;;;;;;86.47;20.15;;;;;;;8.94;100.00;98060.56;5078884;28;20047;-61
2024/03/19 02:48:18;;;;;;;84.38;22.73;;;;;;;8.83;100.00;98057.91;5099459;28;20517;-62
2024/03/19 02:50:45;;;;;;;74.13;22.45;;;;;;;8.67;100.00;98050.91;5098227;28;20135;-60
2024/03/19 02:53:10;;;;;;;80.78;20.52;;;;;;;8.87;100.00;98063.97;5097936;28;20905;-61
2024/03/19 02:55:36;;;;;;;83.93;21.88;;;;;;;8.79;100.00;98055.28;5099186;28;20039;-62
2024/03/19 02:58:01;;;;;;;97.47;21.52;;;;;;;8.58;100.00;98062.13;5098785;28;20031;-61
2024/03/19 03:00:26;;;;;;;89.25;18.02;;;;;;;8.73;100.00;98062.19;5098915;28;20022;-62
2024/03/19 03:02:52;;;;;;;116.97;20.10;;;;;;;9.06;100.00;98062.31;5098850;28;20032;-62
2024/03/19 03:05:17;;;;;;;55.67;16.52;;;;;;;9.19;100.00;98065.84;5099451;28;20582;-62
2024/03/19 03:07:42;;;;;;;79.25;19.77;;;;;;;9.02;100.00;98067.53;5098878;28;20062;-61
2024/03/19 03:10:08;;;;;;;89.95;19.63;;;;;;;8.98;100.00;98066.63;5098041;28;20020;-62
2024/03/19 03:12:33;;;;;;;56.65;16.77;;;;;;;8.83;100.00;98070.00;5099208;28;20102;-63
2024/03/19 03:14:59;;;;;;;110.20;20.48;;;;;;;8.85;100.00;98076.09;5097823;28;20031;-63
2024/03/19 03:17:24;;;;;;;66.35;18.35;;;;;;;8.96;100.00;98082.19;5098899;28;20561;-61
2024/03/19 03:19:49;;;;;;;87.63;18.20;;;;;;;8.80;100.00;98081.22;5098636;28;20955;-61
2024/03/19 03:22:15;;;;;;;79.25;15.23;;;;;;;8.98;100.00;98080.47;5098336;28;20482;-64
2024/03/19 03:24:40;;;;;;;70.50;16.23;;;;;;;8.94;100.00;98081.31;5099284;28;20137;-60
2024/03/19 03:27:06;;;;;;;66.30;16.40;;;;;;;8.99;100.00;98082.19;5097246;28;20100;-62
2024/03/19 03:29:31;;;;;;;76.10;16.58;;;;;;;8.51;100.00;98081.94;5099075;28;20059;-60
2024/03/19 03:31:56;;;;;;;115.10;17.80;;;;;;;8.67;100.00;98082.03;5096889;28;20043;-63
2024/03/19 03:34:21;;;;;;;79.65;17.23;;;;;;;8.86;100.00;98090.78;5099194;28;20069;-61
2024/03/19 03:36:49;;;;;;;62.45;15.45;;;;;;;8.46;100.00;98087.06;5097153;28;20032;-62
2024/03/19 03:39:15;;;;;;;70.13;14.75;;;;;;;8.38;100.00;98080.97;5097857;28;20035;-61
2024/03/19 03:41:42;;;;;;;65.35;15.52;;;;;;;8.64;100.00;98089.81;5097434;28;20031;-62
2024/03/19 03:44:08;;;;;;;54.83;13.55;;;;;;;8.80;100.00;98078.66;5097850;28;20039;-60
2024/03/19 03:46:33;;;;;;;53.35;12.57;;;;;;;8.93;100.00;98087.38;5098647;28;20491;-62
2024/03/19 03:48:58;;;;;;;90.97;17.05;;;;;;;8.29;100.00;98080.91;5097163;28;20091;-64
2024/03/19 03:51:24;;;;;;;70.90;14.85;;;;;;;8.32;100.00;98084.38;5098436;28;20123;-62
2024/03/19 03:53:49;;;;;;;55.92;12.32;;;;;;;8.66;100.00;98073.41;5097926;28;20045;-61
2024/03/19 03:56:14;;;;;;;71.68;13.70;;;;;;;8.12;100.00;98083.38;5098162;28;20044;-62
2024/03/19 03:58:40;;;;;;;57.00;13.07;;;;;;;8.08;100.00;98074.69;5099253;28;20092;-61
2024/03/19 04:01:09;;;;;;;87.57;13.40;;;;;;;8.67;100.00;98074.25;5097216;28;20054;-63
2024/03/19 04:03:34;;;;;;;52.08;12.52;;;;;;;8.53;100.00;98081.94;5098859;28;20031;-63
2024/03/19 04:06:00;;;;;;;92.90;14.48;;;;;;;8.64;100.00;98084.63;5096747;28;20445;-61
2024/03/19 04:08:25;;;;;;;54.05;13.88;;;;;;;8.17;100.00;98079.94;5098246;28;20534;-60
2024/03/19 04:10:51;;;;;;;65.13;12.30;;;;;;;8.86;100.00;98085.59;5095804;28;20039;-61
2024/03/19 04:13:16;;;;;;;77.47;14.48;;;;;;;8.73;100.00;98082.94;5097712;28;20027;-63
2024/03/19 04:15:41;;;;;;;59.83;12.35;;;;;;;8.73;100.00;98087.28;5097158;28;20031;-61
2024/03/19 04:18:07;;;;;;;102.05;17.52;;;;;;;8.57;100.00;98088.88;5097092;28;20085;-62
2024/03/19 04:20:33;;;;;;;68.38;15.10;;;;;;;8.33;100.00;98080.06;5097341;28;20118;-64
2024/03/19 04:22:58;;;;;;;91.25;14.80;;;;;;;8.67;100.00;98084.63;5097096;28;20450;-63
2024/03/19 04:25:23;;;;;;;59.78;11.50;;;;;;;8.85;100.00;98092.53;5096339;28;20071;-62
2024/03/19 04:27:49;;;;;;;68.90;12.95;;;;;;;8.68;100.00;98091.53;5097666;28;20031;-60
2024/03/19 04:30:15;;;;;;;76.35;12.52;;;;;;;8.57;100.00;98094.06;5095373;28;20195;-60
2024/03/19 04:32:40;;;;;;;49.10;13.27;;;;;;;8.70;100.00;98092.44;5098219;28;20515;-61
2024/03/19 04:35:06;;;;;;;100.47;15.90;;;;;;;8.13;100.00;98098.91;5095931;28;20332;-61
2024/03/19 04:37:31;;;;;;;53.83;13.88;;;;;;;8.47;100.00;98093.97;5097571;28;20023;-63
2024/03/19 04:39:57;;;;;;;94.78;15.02;;;;;;;8.43;100.00;98084.44;5078562;28;20039;-61
2024/03/19 04:42:23;;;;;;;73.63;14.57;;;;;;;8.35;100.00;98093.88;5078037;28;20031;-61
2024/03/19 04:44:48;;;;;;;58.53;13.27;;;;;;;8.54;100.00;98089.72;5097952;28;20098;-60
2024/03/19 04:47:17;;;;;;;69.72;14.77;;;;;;;8.23;100.00;98091.22;5096024;28;20047;-61
2024/03/19 04:49:43;;;;;;;68.25;14.13;;;;;;;8.20;100.00;98092.03;5097608;28;20030;-59
2024/03/19 04:52:09;;;;;;;82.32;15.43;;;;;;;8.02;100.00;98091.03;5094757;28;20736;-62
2024/03/19 04:54:34;;;;;;;50.38;12.65;;;;;;;7.93;100.00;98091.84;5097814;28;20173;-62
2024/03/19 04:57:00;;;;;;;84.28;13.05;;;;;;;8.04;100.00;98097.13;5095373;28;20658;-63
2024/03/19 04:59:25;;;;;;;52.50;11.90;;;;;;;8.45;100.00;98098.28;5097876;28;20024;-61
2024/03/19 05:01:50;;;;;;;50.45;12.93;;;;;;;8.03;100.00;98102.28;5097215;28;20047;-61
2024/03/19 05:04:16;;;;;;;84.18;15.45;;;;;;;7.62;100.00;98101.91;5095406;28;20039;-61
2024/03/19 05:06:41;;;;;;;65.13;12.95;;;;;;;8.07;100.00;98093.69;5097094;28;20114;-60
2024/03/19 05:09:07;;;;;;;85.40;16.50;;;;;;;7.68;100.00;98099.38;5095798;28;20447;-65
2024/03/19 05:11:33;;;;;;;78.15;12.40;;;;;;;7.94;100.00;98103.94;5096353;28;20122;-62
2024/03/19 05:13:58;;;;;;;167.40;21.33;;;;;;;7.92;100.00;98109.97;5093950;28;20506;-63
2024/03/19 05:16:23;;;;;;;58.45;13.05;;;;;;;7.91;100.00;98116.00;5096544;28;20028;-61
2024/03/19 05:18:49;;;;;;;68.55;13.75;;;;;;;8.11;100.00;98113.59;5096384;28;20040;-62
2024/03/19 05:21:14;;;;;;;63.28;14.07;;;;;;;8.09;100.00;98112.69;5094749;28;20407;-62
2024/03/19 05:23:39;;;;;;;59.88;12.13;;;;;;;8.12;100.00;98120.50;5096307;28;20023;-63
2024/03/19 05:26:07;;;;;;;109.82;14.63;;;;;;;8.72;100.00;98117.50;5094903;28;20088;-61
2024/03/19 05:28:32;;;;;;;51.40;11.88;;;;;;;8.53;100.00;98115.63;5096752;28;20023;-63
2024/03/19 05:30:57;;;;;;;83.72;14.85;;;;;;;8.84;100.00;98118.44;5094432;28;20044;-62
2024/03/19 05:33:23;;;;;;;74.88;13.70;;;;;;;9.16;100.00;98122.91;5095658;28;20050;-61
2024/03/19 05:35:48;;;;;;;53.40;13.88;;;;;;;8.60;100.00;98125.19;5096592;28;20096;-61
2024/03/19 05:38:13;;;;;;;68.53;14.20;;;;;;;8.62;100.00;98125.22;5095359;28;20302;-60
2024/03/19 05:40:39;;;;;;;60.22;13.30;;;;;;;8.27;100.00;98127.53;5096207;28;20023;-60
2024/03/19 05:43:06;;;;;;;100.78;16.50;;;;;;;8.30;100.00;98134.47;5095785;28;20023;-61
2024/03/19 05:45:32;;;;;;;55.50;13.55;;;;;;;8.07;100.00;98137.72;5095469;28;20043;-62
2024/03/19 05:47:57;;;;;;;88.13;16.00;;;;;;;8.50;100.00;98139.78;5095132;28;20036;-63
2024/03/19 05:50:23;;;;;;;87.53;16.80;;;;;;;8.36;100.00;98141.41;5095235;28;20130;-63
2024/03/19 05:52:48;;;;;;;57.80;14.57;;;;;;;8.10;100.00;98144.66;5096279;28;20024;-63
2024/03/19 05:55:13;;;;;;;71.78;12.55;;;;;;;8.16;100.00;98145.56;5093896;28;20024;-60
2024/03/19 05:57:39;;;;;;;57.65;11.57;;;;;;;8.80;100.00;98147.81;5096576;28;20084;-62
2024/03/19 06:00:05;;;;;;;104.85;14.77;;;;;;;8.87;100.00;98152.16;5094904;28;20434;-62
2024/03/19 06:02:30;;;;;;;68.82;13.82;;;;;;;8.96;100.00;98147.06;5095872;28;20032;-60
2024/03/19 06:04:56;;;;;;;57.17;12.10;;;;;;;9.14;100.00;98158.41;5095084;28;20046;-59
2024/03/19 06:07:22;;;;;;;65.40;13.82;;;;;;;9.40;100.00;98146.38;5094751;28;20047;-61
2024/03/19 06:09:47;;;;;;;54.83;14.00;;;;;;;9.25;100.00;98151.50;5095800;28;20080;-59
2024/03/19 06:12:15;;;;;;;98.90;17.90;;;;;;;8.98;100.00;98153.09;5094562;28;20411;-61
2024/03/19 06:14:40;;;;;;;50.25;13.82;;;;;;;9.01;100.00;98156.59;5095716;28;20038;-61
2024/03/19 06:17:06;;;;;;;88.50;14.77;;;;;;;9.97;100.00;98156.06;5094514;28;20040;-63
2024/03/19 06:19:34;;;;;;;54.58;13.07;;;;;;;10.31;100.00;98163.03;5096182;28;20051;-61
2024/03/19 06:22:00;;;;;;;87.95;16.98;;;;;;;9.62;100.00;98149.94;5093709;28;20043;-60
2024/03/19 06:24:26;;;;;;;65.47;14.52;;;;;;;9.76;100.00;98161.22;5095957;28;20024;-60
2024/03/19 06:26:51;;;;;;;51.90;13.70;;;;;;;10.17;100.00;98174.28;5095998;28;20466;-60
2024/03/19 06:29:16;;;;;;;78.82;16.38;;;;;;;10.32;100.00;98163.03;5093768;28;20034;-63
2024/03/19 06:31:42;;;;;;;74.90;16.67;;;;;;;10.52;100.00;98170.00;5095830;28;20050;-60
2024/03/19 06:34:08;;;;;;;101.07;18.20;;;;;;;10.44;100.00;98166.50;5094739;28;20031;-60
2024/03/19 06:36:33;;;;;;;72.90;16.70;;;;;;;10.57;100.00;98165.66;5094910;28;20055;-62
2024/03/19 06:38:59;;;;;;;74.15;16.88;;;;;;;9.27;100.00;98177.47;5094139;28;20043;-62
2024/03/19 06:41:25;;;;;;;70.20;16.52;;;;;;;9.21;100.00;98177.47;5095446;28;20036;-63
2024/03/19 06:43:51;;;;;;;66.18;15.70;;;;;;;9.26;100.00;98180.94;5097915;28;20028;-61
2024/03/19 06:46:16;;;;;;;91.68;17.23;;;;;;;9.03;100.00;98186.00;5096987;28;20032;-60
2024/03/19 06:48:45;;;;;;;48.53;14.65;;;;;;;8.82;100.00;98183.28;5100231;28;20216;-61
2024/03/19 06:51:11;;;;;;;109.47;18.95;;;;;;;8.80;100.00;98189.31;5096618;28;20039;-61
2024/03/19 06:53:36;;;;;;;66.07;18.35;;;;;;;8.97;100.00;98185.09;5100283;28;20100;-60
2024/03/19 06:56:10;;;;;;;81.45;17.63;;;;;;;9.01;100.00;98193.75;5098157;28;20075;-61
2024/03/19 06:58:36;;;;;;;78.95;17.02;;;;;;;9.43;100.00;98193.13;5099537;28;20019;-64
2024/03/19 07:01:02;;;;;;;78.80;17.30;;;;;;;9.63;100.00;98188.91;5097497;28;20046;-61
2024/03/19 07:03:27;;;;;;;54.42;16.27;;;;;;;9.22;100.00;98203.41;5100093;28;20031;-61
2024/03/19 07:05:54;;;;;;;77.75;15.82;;;;;;;9.47;100.00;98203.53;5099181;28;20070;-60
2024/03/19 07:08:19;;;;;;;74.70;16.33;;;;;;;9.87;100.00;98201.94;5100226;28;20036;-62
2024/03/19 07:10:45;;;;;;;68.35;16.80;;;;;;;10.05;100.00;98213.25;5100647;28;20036;-63
2024/03/19 07:13:10;;;;;;;82.72;16.58;;;;;;;10.62;100.00;98204.69;5100315;28;20512;-62
2024/03/19 07:15:35;;;;;;;63.00;15.88;;;;;;;10.89;100.00;98216.81;5101159;28;20036;-60
2024/03/19 07:18:01;;;;;;;65.22;18.65;;;;;;;10.31;100.00;98213.28;5100803;28;20040;-64
2024/03/19 07:20:31;;;;;;;92.03;18.83;;;;;;;10.57;100.00;98215.06;5099936;28;20023;-62
2024/03/19 07:22:58;;;;;;;52.58;15.05;;;;;;;10.46;100.00;98214.22;5101449;28;20034;-64
2024/03/19 07:25:24;;;;;;;74.30;17.27;;;;;;;10.80;100.00;98219.41;5100025;28;20097;-63
2024/03/19 07:27:49;;;;;;;72.53;15.90;;;;;;;10.98;100.00;98215.94;5100287;28;20031;-62
2024/03/19 07:30:15;;;;;;;84.97;17.05;;;;;;;11.17;100.00;98215.91;5099804;28;20039;-61
2024/03/19 07:32:42;;;;;;;46.85;14.18;;;;;;;11.54;100.00;98220.16;5101477;28;20258;-62
2024/03/19 07:35:09;;;;;;;75.55;16.92;;;;;;;11.85;100.00;98215.66;5099973;28;20110;-63
2024/03/19 07:37:38;;;;;;;44.47;15.50;;;;;;;12.43;100.00;98211.88;5100835;28;20072;-62
2024/03/19 07:40:05;;;;;;;70.65;16.58;;;;;;;15.10;100.00;98212.06;5100445;28;20111;-63
2024/03/19 07:42:30;;;;;;;65.43;16.67;;;;;;;18.44;100.00;98182.84;5099740;28;20063;-63
2024/03/19 07:44:56;;;;;;;51.47;16.00;;;;;;;20.07;100.00;98178.94;5100810;28;20116;-61
2024/03/19 07:47:21;;;;;;;59.13;18.38;;;;;;;19.54;100.00;98177.38;5099713;28;20039;-63
2024/03/19 07:49:47;;;;;;;49.67;14.82;;;;;;;19.29;100.00;98184.41;5100491;28;20419;-64
2024/03/19 07:52:13;;;;;;;55.67;14.35;;;;;;;20.10;100.00;98183.22;5099544;28;20451;-60
2024/03/19 07:54:39;;;;;;;46.17;12.43;;;;;;;20.97;100.00;98185.00;5100373;28;20026;-60
2024/03/19 07:57:04;;;;;;;51.85;12.70;;;;;;;23.93;68.73;98189.34;5099812;28;20063;-62
2024/03/19 07:59:30;;;;;;;34.17;10.88;;;;;;;21.69;65.34;98188.03;5100669;28;20619;-60
2024/03/19 08:01:55;;;;;;;35.25;11.07;;;;;;;24.63;56.44;98186.41;5099892;28;20067;-62
2024/03/19 08:04:20;;;;;;;52.55;13.15;;;;;;;25.07;53.88;98182.97;5099595;28;20465;-60
2024/03/19 08:06:46;;;;;;;39.58;12.98;;;;;;;26.89;46.21;98172.47;5098967;28;20032;-60
2024/03/19 08:09:11;;;;;;;44.78;12.60;;;;;;;26.89;44.19;98178.66;5099595;28;20040;-63
2024/03/19 08:11:37;;;;;;;43.35;12.80;;;;;;;28.08;39.79;98181.19;5099876;28;20308;-66
2024/03/19 08:14:02;;;;;;;40.08;12.18;;;;;;;26.82;40.12;98177.38;5100099;28;20030;-63
2024/03/19 08:16:27;;;;;;;34.47;13.35;;;;;;;23.35;49.68;98188.06;5099629;28;20468;-65
2024/03/19 08:18:54;;;;;;;41.20;12.75;;;;;;;23.95;44.32;98183.97;5100149;28;20023;-63
2024/03/19 08:21:22;;;;;;;46.90;14.13;;;;;;;23.20;48.82;98187.88;5099000;28;20580;-62
2024/03/19 08:23:48;;;;;;;45.17;13.50;;;;;;;20.92;57.08;98187.84;5099899;28;20023;-61
2024/03/19 08:26:16;;;;;;;59.00;13.93;;;;;;;23.41;49.98;98185.06;5098513;28;20043;-63
2024/03/19 08:28:42;;;;;;;40.20;14.77;;;;;;;21.42;53.62;98180.41;5099512;28;20395;-63
2024/03/19 08:31:09;;;;;;;49.15;15.65;;;;;;;21.12;59.95;98188.78;5098167;28;20503;-63
2024/03/19 08:33:36;;;;;;;42.17;12.38;;;;;;;22.49;58.14;98182.53;5080822;28;20012;-62
2024/03/19 08:36:01;;;;;;;34.47;11.73;;;;;;;22.92;54.97;98181.38;5098744;28;20051;-62
2024/03/19 08:38:27;;;;;;;33.55;11.88;;;;;;;26.62;43.93;98176.91;5099863;28;20391;-63
2024/03/19 08:40:52;;;;;;;35.55;12.27;;;;;;;26.75;42.37;98176.06;5098899;28;20666;-62
2024/03/19 08:43:17;;;;;;;48.20;11.90;;;;;;;25.91;41.95;98181.47;5099211;28;20466;-63
2024/03/19 08:45:43;;;;;;;46.60;10.98;;;;;;;25.74;43.04;98180.72;5098699;28;20099;-62
2024/03/19 08:48:08;;;;;;;53.95;12.32;;;;;;;25.32;42.75;98180.63;5099175;28;20049;-63
2024/03/19 08:50:33;;;;;;;45.90;13.00;;;;;;;26.12;41.54;98180.09;5098620;28;20093;-62
2024/03/19 08:52:58;;;;;;;40.03;11.48;;;;;;;25.74;41.53;98186.06;5099611;28;20089;-64
2024/03/19 08:55:24;;;;;;;39.88;13.15;;;;;;;27.25;44.91;98180.75;5098387;28;20098;-64
2024/03/19 08:57:49;;;;;;;33.17;10.65;;;;;;;27.97;37.55;98178.44;5099568;28;20031;-64
2024/03/19 09:00:18;;;;;;;58.90;13.73;;;;;;;30.01;34.11;98176.47;5097568;28;20035;-65
2024/03/19 09:02:46;;;;;;;39.13;11.50;;;;;;;28.17;34.55;98185.84;5099104;28;20547;-63
2024/03/19 09:05:12;;;;;;;42.92;15.07;;;;;;;23.48;41.66;98191.78;5097919;28;20115;-62
2024/03/19 09:07:39;;;;;;;32.85;11.45;;;;;;;25.32;40.54;98186.78;5098926;28;20094;-62
2024/03/19 09:10:06;;;;;;;45.15;12.52;;;;;;;22.89;47.69;98194.75;5098692;28;20027;-61
2024/03/19 09:12:32;;;;;;;36.25;11.27;;;;;;;22.81;48.20;98184.56;5098109;28;20035;-63
2024/03/19 09:14:57;;;;;;;44.13;11.57;;;;;;;23.62;43.88;98190.19;5099064;28;20047;-61
2024/03/19 09:17:22;;;;;;;43.60;11.10;;;;;;;25.91;40.11;98185.00;5097820;28;20031;-64
2024/03/19 09:19:48;;;;;;;46.33;10.40;;;;;;;25.91;40.11;98185.00;5099005;28;20019;-62
2024/03/19 09:22:14;;;;;;;55.85;11.60;;;;;;;24.73;39.49;98192.06;5097105;28;20038;-64
2024/03/19 09:24:39;;;;;;;41.42;11.02;;;;;;;24.34;41.45;98197.78;5098494;28;20387;-63
2024/03/19 09:27:07;;;;;;;45.90;10.50;;;;;;;22.71;43.47;98192.13;5097522;28;20154;-63
2024/03/19 09:29:32;;;;;;;45.15;10.63;;;;;;;22.47;45.53;98199.47;5098570;28;20218;-63
2024/03/19 09:31:58;;;;;;;40.30;11.88;;;;;;;24.51;43.12;98193.28;5098363;28;20027;-63
2024/03/19 09:34:23;;;;;;;41.15;11.52;;;;;;;22.47;45.69;98195.03;5098187;28;20020;-64
2024/03/19 09:36:48;;;;;;;45.60;11.65;;;;;;;23.65;44.41;98195.31;5098395;28;20042;-65
2024/03/19 09:39:15;;;;;;;60.55;11.98;;;;;;;23.32;44.06;98202.31;5097832;28;20070;-63
2024/03/19 09:42:09;;;;;;;44.13;11.55;;;;;;;22.82;46.74;98198.69;5098043;28;20077;-65
2024/03/19 09:44:35;;;;;;;37.90;10.50;;;;;;;24.26;42.91;98200.00;5098811;28;20419;-65
2024/03/19 09:47:01;;;;;;;37.75;10.00;;;;;;;22.79;45.21;98198.84;5098001;28;20043;-63
2024/03/19 09:49:32;;;;;;;46.42;10.07;;;;;;;24.48;42.31;98191.69;5097683;28;20168;-63
2024/03/19 09:52:07;;;;;;;42.35;9.55;;;;;;;26.55;39.25;98193.41;5098252;28;20044;-61
2024/03/19 09:54:32;;;;;;;33.90;8.60;;;;;;;28.76;34.85;98195.91;5098120;28;20084;-64
2024/03/19 09:56:59;;;;;;;34.05;8.55;;;;;;;27.76;35.44;98189.72;5098197;28;20043;-63
2024/03/19 09:59:27;;;;;;;35.95;9.77;;;;;;;27.89;35.13;98187.88;5098387;28;20034;-66
2024/03/19 10:01:56;;;;;;;40.15;10.43;;;;;;;22.26;42.20;98193.44;5096115;28;20043;-65
2024/03/19 10:04:23;;;;;;;52.63;11.30;;;;;;;22.84;44.71;98192.38;5098124;28;20051;-63
2024/03/19 10:06:48;;;;;;;45.63;12.05;;;;;;;24.31;41.29;98188.19;5097526;28;20031;-66
2024/03/19 10:09:16;;;;;;;67.53;12.32;;;;;;;22.90;42.73;98188.53;5097316;28;20357;-65
2024/03/19 10:11:42;;;;;;;50.22;13.77;;;;;;;21.24;48.30;98192.69;5097605;28;20069;-64
2024/03/19 10:14:09;;;;;;;58.53;23.50;;;;;;;21.29;51.34;98189.81;5097912;28;20583;-61
2024/03/19 10:16:50;;;;;;;65.68;25.85;;;;;;;20.79;55.33;98191.91;5096922;28;20577;-64
2024/03/19 10:19:18;;;;;;;56.10;13.82;;;;;;;19.95;59.08;98190.81;5100995;28;20016;-61
2024/03/19 10:21:44;;;;;;;55.95;15.32;;;;;;;19.00;62.36;98191.53;5100992;28;20413;-61
2024/03/19 10:24:17;;;;;;;57.17;13.27;;;;;;;19.82;64.09;98198.31;5101962;28;20221;-62
2024/03/19 10:26:43;;;;;;;59.40;23.42;;;;;;;18.78;69.51;98184.38;5101483;28;20036;-63
2024/03/19 10:29:14;;;;;;;58.40;15.82;;;;;;;22.49;51.84;98184.34;5082921;28;20399;-61
2024/03/19 10:31:41;;;;;;;40.50;8.93;;;;;;;23.97;44.73;98189.19;5101648;28;20039;-63
2024/03/19 10:34:18;;;;;;;46.97;9.85;;;;;;;24.45;42.18;98183.88;5101162;28;20049;-64
2024/03/19 10:36:52;;;;;;;38.95;12.85;;;;;;;23.74;42.88;98178.03;5100984;28;20042;-60
2024/03/19 10:39:20;;;;;;;49.75;9.77;;;;;;;20.75;48.67;98183.25;5100783;28;20114;-64
2024/03/19 10:41:48;;;;;;;49.83;9.35;;;;;;;23.28;46.47;98180.38;5100717;28;20511;-64
2024/03/19 10:44:18;;;;;;;49.28;11.00;;;;;;;23.37;44.40;98173.78;5101236;28;20083;-60
2024/03/19 10:46:45;;;;;;;37.20;10.02;;;;;;;25.48;41.86;98175.19;5100786;28;20355;-62
2024/03/19 10:49:15;;;;;;;47.47;9.85;;;;;;;27.21;36.99;98168.59;5101269;28;20038;-62
2024/03/19 10:51:43;;;;;;;34.70;7.97;;;;;;;24.39;39.68;98177.09;5101126;28;20028;-63
2024/03/19 10:54:11;;;;;;;50.53;10.70;;;;;;;25.97;39.19;98165.09;5100479;28;20398;-63
2024/03/19 10:56:38;;;;;;;34.15;8.30;;;;;;;23.96;40.66;98177.72;5101310;28;20475;-63
2024/03/19 10:59:03;;;;;;;47.83;11.48;;;;;;;22.04;45.80;98174.09;5101113;28;20105;-63
2024/03/19 11:01:29;;;;;;;53.05;16.73;;;;;;;20.37;50.19;98172.47;5098812;28;20466;-61
2024/03/19 11:03:54;;;;;;;51.13;11.98;;;;;;;19.59;56.99;98163.09;5101068;28;21089;-63
2024/03/19 11:06:22;;;;;;;75.32;15.02;;;;;;;19.78;60.28;98170.31;5099245;28;20434;-62
2024/03/19 11:08:52;;;;;;;65.13;13.95;;;;;;;22.71;48.92;98167.41;5100577;28;20288;-63